createdAt,value
2022-12-28T00:01:54.411Z,21.27
2022-12-28T00:04:25.531Z,19.25
2022-12-28T00:06:54.040Z,23.98
2022-12-28T00:09:26.340Z,24.58
2022-12-28T00:11:54.645Z,19.85
2022-12-28T00:14:26.109Z,19.27
2022-12-28T00:16:54.381Z,23.83
2022-12-28T00:19:25.685Z,19.75
2022-12-28T00:21:55.273Z,26.80
2022-12-28T00:24:26.025Z,28.00
2022-12-28T00:26:56.638Z,24.45
2022-12-28T00:29:25.361Z,24.50
2022-12-28T00:31:53.718Z,22.90
2022-12-28T00:34:25.009Z,23.48
2022-12-28T00:39:41.964Z,26.10
2022-12-28T00:42:11.237Z,26.65
2022-12-28T00:44:39.843Z,21.25
2022-12-28T00:47:08.635Z,18.42
2022-12-28T00:49:36.957Z,22.77
2022-12-28T00:52:05.639Z,26.90
2022-12-28T00:54:34.027Z,25.70
2022-12-28T00:57:06.460Z,17.23
2022-12-28T00:59:34.781Z,17.65
2022-12-28T01:02:09.729Z,22.15
2022-12-28T01:04:38.075Z,21.75
2022-12-28T01:07:06.362Z,22.52
2022-12-28T01:09:36.862Z,20.00
2022-12-28T01:12:05.511Z,19.43
2022-12-28T01:14:34.069Z,23.10
2022-12-28T01:17:09.538Z,19.48
2022-12-28T01:19:37.852Z,23.70
2022-12-28T01:22:06.359Z,24.98
2022-12-28T01:24:34.734Z,26.05
2022-12-28T01:27:17.351Z,24.38
2022-12-28T01:29:45.694Z,23.92
2022-12-28T01:32:14.040Z,22.38
2022-12-28T01:34:44.365Z,22.35
2022-12-28T01:37:21.147Z,21.27
2022-12-28T01:39:49.687Z,25.13
2022-12-28T01:42:23.360Z,28.55
2022-12-28T01:44:52.755Z,27.63
2022-12-28T01:47:37.173Z,31.02
2022-12-28T01:50:21.170Z,26.52
2022-12-28T01:52:53.808Z,28.58
2022-12-28T01:55:30.040Z,28.88
2022-12-28T01:58:01.007Z,25.90
2022-12-28T02:00:30.030Z,29.20
2022-12-28T02:03:12.233Z,28.92
2022-12-28T02:05:44.430Z,33.60
2022-12-28T02:08:19.836Z,29.67
2022-12-28T02:10:48.804Z,28.17
2022-12-28T02:13:18.528Z,28.90
2022-12-28T02:15:47.939Z,30.48
2022-12-28T02:18:23.385Z,27.63
2022-12-28T02:21:25.746Z,28.25
2022-12-28T02:24:27.211Z,24.38
2022-12-28T02:27:31.874Z,27.10
2022-12-28T02:30:08.883Z,32.50
2022-12-28T02:32:52.038Z,21.63
2022-12-28T02:35:29.451Z,25.67
2022-12-28T02:38:33.010Z,22.20
2022-12-28T02:41:19.942Z,21.98
2022-12-28T02:43:56.890Z,23.00
2022-12-28T02:46:52.312Z,24.50
2022-12-28T02:49:48.740Z,25.85
2022-12-28T02:52:53.806Z,17.77
2022-12-28T02:55:57.062Z,19.88
2022-12-28T02:58:40.150Z,28.05
2022-12-28T03:01:21.390Z,18.75
2022-12-28T03:04:21.827Z,23.08
2022-12-28T03:07:35.877Z,23.27
2022-12-28T03:10:26.027Z,25.00
2022-12-28T03:13:34.042Z,18.55
2022-12-28T03:16:36.001Z,34.20
2022-12-28T03:19:28.331Z,26.17
2022-12-28T03:22:19.314Z,26.65
2022-12-28T03:25:07.549Z,25.20
2022-12-28T03:27:56.853Z,17.17
2022-12-28T03:30:49.477Z,19.50
2022-12-28T03:33:17.907Z,17.52
2022-12-28T03:36:03.760Z,15.60
2022-12-28T03:38:46.008Z,19.67
2022-12-28T03:41:37.194Z,15.32
2022-12-28T03:44:17.380Z,15.75
2022-12-28T03:47:16.323Z,16.70
2022-12-28T03:49:44.707Z,17.98
2022-12-28T03:52:24.373Z,27.25
2022-12-28T03:55:01.130Z,18.85
2022-12-28T03:57:32.560Z,18.70
2022-12-28T04:02:32.167Z,23.42
2022-12-28T04:05:00.546Z,24.42
2022-12-28T04:07:29.604Z,19.42
2022-12-28T04:09:57.822Z,17.67
2022-12-28T04:12:32.089Z,24.58
2022-12-28T04:15:00.465Z,22.52
2022-12-28T04:17:31.510Z,23.77
2022-12-28T04:20:02.440Z,18.52
2022-12-28T04:22:30.711Z,20.13
2022-12-28T04:25:01.936Z,23.10
2022-12-28T04:27:33.217Z,24.35
2022-12-28T04:30:01.483Z,19.17
2022-12-28T04:32:32.736Z,15.23
2022-12-28T04:35:01.032Z,13.90
2022-12-28T04:37:31.738Z,21.15
2022-12-28T04:40:00.437Z,17.10
2022-12-28T04:42:31.592Z,12.35
2022-12-28T04:45:02.800Z,16.95
2022-12-28T04:47:31.099Z,13.65
2022-12-28T04:50:01.670Z,13.45
2022-12-28T04:52:34.966Z,18.17
2022-12-28T04:55:03.288Z,16.25
2022-12-28T04:57:31.586Z,15.02
2022-12-28T05:00:02.841Z,17.27
2022-12-28T05:02:34.113Z,22.13
2022-12-28T05:05:02.514Z,23.60
2022-12-28T05:07:33.884Z,25.92
2022-12-28T05:10:02.113Z,22.38
2022-12-28T05:12:33.349Z,27.20
2022-12-28T05:15:01.616Z,22.27
2022-12-28T05:17:33.540Z,26.38
2022-12-28T05:20:02.066Z,26.23
2022-12-28T05:22:36.303Z,20.58
2022-12-28T05:25:15.170Z,26.92
2022-12-28T05:27:43.428Z,23.67
2022-12-28T05:30:28.327Z,13.52
2022-12-28T05:33:02.058Z,17.35
2022-12-28T05:35:33.337Z,14.15
2022-12-28T05:38:01.595Z,14.43
2022-12-28T05:40:34.274Z,15.10
2022-12-28T05:43:02.509Z,16.58
2022-12-28T05:45:33.660Z,17.02
2022-12-28T05:48:04.666Z,17.23
2022-12-28T05:50:32.926Z,14.27
2022-12-28T05:53:04.191Z,14.63
2022-12-28T05:55:32.398Z,16.25
2022-12-28T05:58:03.693Z,20.83
2022-12-28T06:00:32.000Z,17.75
2022-12-28T06:03:03.679Z,17.42
2022-12-28T06:05:32.143Z,19.35
2022-12-28T06:08:03.502Z,22.10
2022-12-28T06:10:34.829Z,19.98
2022-12-28T06:13:06.387Z,18.75
2022-12-28T06:18:02.551Z,22.73
2022-12-28T06:20:34.007Z,17.42
2022-12-28T06:25:32.863Z,19.25
2022-12-28T06:28:03.409Z,15.32
2022-12-28T06:30:34.483Z,25.30
2022-12-28T06:33:02.706Z,25.27
2022-12-28T06:35:34.013Z,20.40
2022-12-28T06:38:02.545Z,23.35
2022-12-28T06:41:02.531Z,21.65
2022-12-28T06:43:28.908Z,23.25
2022-12-28T06:46:07.690Z,17.90
2022-12-28T06:48:37.097Z,20.33
2022-12-28T06:51:17.356Z,22.58
2022-12-28T06:53:46.769Z,21.13
2022-12-28T06:56:32.775Z,30.80
2022-12-28T06:59:05.019Z,20.05
2022-12-28T07:01:41.873Z,22.25
2022-12-28T07:04:11.961Z,13.27
2022-12-28T07:06:43.047Z,26.33
2022-12-28T07:09:17.335Z,23.63
2022-12-28T07:11:46.222Z,15.45
2022-12-28T07:14:20.237Z,19.42
2022-12-28T07:16:49.757Z,18.73
2022-12-28T07:19:27.417Z,16.50
2022-12-28T07:22:04.569Z,16.20
2022-12-28T07:24:33.026Z,16.67
2022-12-28T07:27:04.401Z,16.10
2022-12-28T07:32:01.890Z,19.75
2022-12-28T07:34:37.555Z,18.33
2022-12-28T07:37:05.841Z,16.63
2022-12-28T07:39:37.376Z,19.65
2022-12-28T07:44:38.313Z,16.33
2022-12-28T07:47:07.002Z,18.13
2022-12-28T07:49:35.574Z,26.83
2022-12-28T07:52:04.023Z,28.02
2022-12-28T07:54:35.564Z,30.23
2022-12-28T07:59:37.052Z,22.60
2022-12-28T08:02:05.565Z,24.00
2022-12-28T08:04:33.940Z,17.35
2022-12-28T08:07:05.411Z,26.10
2022-12-28T08:12:04.529Z,24.38
2022-12-28T08:14:35.571Z,26.73
2022-12-28T08:17:04.141Z,28.92
2022-12-28T08:19:32.504Z,17.85
2022-12-28T08:22:03.876Z,24.67
2022-12-28T08:24:36.440Z,29.40
2022-12-28T08:27:07.218Z,17.08
2022-12-28T08:29:35.496Z,22.90
2022-12-28T08:32:06.947Z,25.95
2022-12-28T08:37:03.238Z,23.55
2022-12-28T08:39:34.508Z,15.55
2022-12-28T08:42:05.598Z,25.33
2022-12-28T08:44:36.805Z,30.00
2022-12-28T08:47:05.250Z,25.73
2022-12-28T08:49:36.093Z,28.30
2022-12-28T08:52:08.467Z,25.65
2022-12-28T08:55:00.476Z,23.33
2022-12-28T08:57:33.727Z,29.08
2022-12-28T09:00:02.115Z,26.13
2022-12-28T09:02:38.030Z,26.90
2022-12-28T09:05:06.888Z,32.30
2022-12-28T09:07:37.893Z,28.73
2022-12-28T09:10:06.656Z,24.08
2022-12-28T09:12:37.491Z,21.80
2022-12-28T09:15:06.272Z,30.83
2022-12-28T09:17:36.902Z,35.08
2022-12-28T09:20:08.637Z,28.83
2022-12-28T09:22:39.301Z,27.67
2022-12-28T09:25:08.089Z,26.60
2022-12-28T09:27:39.251Z,29.10
2022-12-28T09:30:08.737Z,28.42
2022-12-28T09:32:37.010Z,20.63
2022-12-28T09:35:05.605Z,24.83
2022-12-28T09:37:37.213Z,29.40
2022-12-28T09:40:10.667Z,27.80
2022-12-28T09:42:47.598Z,31.92
2022-12-28T09:45:20.238Z,24.15
2022-12-28T09:48:04.352Z,25.38
2022-12-28T09:50:35.883Z,28.33
2022-12-28T09:55:46.058Z,26.13
2022-12-28T09:58:19.329Z,21.98
2022-12-28T10:00:56.061Z,30.85
2022-12-28T10:03:30.238Z,22.88
2022-12-28T10:06:01.903Z,23.50
2022-12-28T10:11:03.793Z,19.35
2022-12-28T10:13:56.898Z,22.10
2022-12-28T10:16:32.422Z,27.77
2022-12-28T10:19:09.101Z,21.70
2022-12-28T10:21:37.742Z,28.25
2022-12-28T10:27:00.476Z,27.15
2022-12-28T10:29:29.464Z,24.60
2022-12-28T10:32:07.463Z,17.77
2022-12-28T10:34:37.607Z,25.70
2022-12-28T10:37:16.119Z,19.88
2022-12-28T10:40:02.249Z,24.88
2022-12-28T10:42:36.407Z,24.42
2022-12-28T10:45:17.640Z,25.08
2022-12-28T10:47:49.935Z,21.42
2022-12-28T10:50:43.707Z,21.00
2022-12-28T10:53:21.697Z,24.75
2022-12-28T10:55:53.025Z,23.85
2022-12-28T10:58:31.300Z,22.55
2022-12-28T11:01:14.902Z,30.00
2022-12-28T11:04:06.983Z,23.50
2022-12-28T11:06:37.793Z,24.65
2022-12-28T11:09:17.607Z,24.30
2022-12-28T11:11:47.488Z,25.02
2022-12-28T11:14:38.872Z,23.15
2022-12-28T11:17:38.722Z,22.60
2022-12-28T11:20:37.392Z,24.75
2022-12-28T11:23:10.299Z,24.45
2022-12-28T11:25:38.865Z,31.10
2022-12-28T11:28:22.749Z,23.63
2022-12-28T11:30:57.800Z,25.52
2022-12-28T11:33:39.961Z,14.40
2022-12-28T11:36:16.374Z,30.67
2022-12-28T11:38:47.121Z,19.17
2022-12-28T11:41:36.196Z,17.20
2022-12-28T11:44:06.059Z,24.83
2022-12-28T11:46:38.659Z,21.38
2022-12-28T11:49:28.566Z,21.00
2022-12-28T11:52:18.415Z,21.00
2022-12-28T11:54:55.998Z,23.48
2022-12-28T11:57:40.687Z,23.35
2022-12-28T12:00:46.007Z,27.50
2022-12-28T12:03:14.418Z,21.30
2022-12-28T12:05:52.960Z,22.33
2022-12-28T12:08:24.364Z,28.27
2022-12-28T12:11:41.484Z,16.27
2022-12-28T12:14:10.047Z,18.38
2022-12-28T12:17:06.312Z,25.42
2022-12-28T12:19:39.049Z,17.00
2022-12-28T12:22:19.792Z,23.10
2022-12-28T12:24:59.732Z,20.90
2022-12-28T12:27:53.836Z,18.88
2022-12-28T12:30:26.828Z,21.98
2022-12-28T12:33:07.781Z,25.35
2022-12-28T12:35:51.100Z,28.48
2022-12-28T12:38:56.680Z,26.85
2022-12-28T12:41:58.023Z,32.65
2022-12-28T12:45:16.283Z,20.98
2022-12-28T12:48:17.784Z,18.83
2022-12-28T12:51:00.754Z,21.45
2022-12-28T12:53:32.128Z,19.75
2022-12-28T12:56:38.307Z,20.25
2022-12-28T12:59:26.881Z,12.80
2022-12-28T13:02:13.729Z,13.07
2022-12-28T13:04:46.998Z,13.18
2022-12-28T13:07:30.965Z,11.35
2022-12-28T13:10:07.444Z,7.35
2022-12-28T13:12:37.876Z,17.83
2022-12-28T13:15:12.528Z,14.80
2022-12-28T13:17:43.099Z,18.05
2022-12-28T13:20:25.075Z,19.23
2022-12-28T13:22:57.332Z,22.25
2022-12-28T13:25:35.184Z,14.52
2022-12-28T13:28:05.295Z,17.65
2022-12-28T13:30:41.038Z,14.95
2022-12-28T13:33:22.895Z,17.75
2022-12-28T13:35:51.417Z,16.98
2022-12-28T13:38:19.911Z,18.45
2022-12-28T13:40:53.739Z,18.67
2022-12-28T13:43:56.510Z,34.50
2022-12-28T13:46:28.729Z,21.98
2022-12-28T13:49:00.352Z,21.58
2022-12-28T13:54:02.376Z,21.27
2022-12-28T13:56:42.321Z,15.98
2022-12-28T13:59:15.350Z,14.50
2022-12-28T14:01:56.177Z,16.33
2022-12-28T14:04:52.277Z,21.90
2022-12-28T14:07:18.224Z,16.52
2022-12-28T14:09:47.860Z,13.80
2022-12-28T14:12:17.520Z,16.73
2022-12-28T14:14:50.750Z,12.80
2022-12-28T14:17:20.106Z,18.25
2022-12-28T14:19:52.872Z,20.85
2022-12-28T14:22:30.202Z,19.20
2022-12-28T14:25:11.478Z,14.98
2022-12-28T14:28:07.861Z,14.75
2022-12-28T14:30:44.740Z,16.45
2022-12-28T14:33:24.983Z,11.60
2022-12-28T14:35:58.195Z,14.73
2022-12-28T14:38:33.649Z,14.68
2022-12-28T14:41:04.160Z,18.20
2022-12-28T14:43:41.525Z,18.35
2022-12-28T14:46:32.433Z,12.18
2022-12-28T14:49:29.948Z,17.03
2022-12-28T14:52:10.103Z,14.23
2022-12-28T14:54:48.545Z,13.52
2022-12-28T14:57:33.701Z,18.40
2022-12-28T15:00:21.770Z,16.70
2022-12-28T15:02:51.093Z,13.50
2022-12-28T15:05:55.432Z,16.23
2022-12-28T15:08:24.009Z,17.48
2022-12-28T15:10:55.727Z,18.15
2022-12-28T15:13:25.874Z,13.65
2022-12-28T15:16:07.445Z,16.10
2022-12-28T15:21:07.320Z,15.50
2022-12-28T15:23:35.759Z,16.60
2022-12-28T15:26:11.825Z,14.63
2022-12-28T15:28:40.968Z,11.45
2022-12-28T15:31:12.588Z,15.00
2022-12-28T15:33:41.008Z,17.30
2022-12-28T15:36:17.813Z,15.15
2022-12-28T15:39:00.339Z,12.90
2022-12-28T15:41:48.009Z,14.32
2022-12-28T15:44:19.339Z,16.27
2022-12-28T15:46:50.793Z,14.15
2022-12-28T15:49:19.997Z,14.90
2022-12-28T15:51:48.452Z,15.15
2022-12-28T15:54:16.766Z,18.15
2022-12-28T15:56:45.243Z,18.00
2022-12-28T15:59:15.781Z,18.48
2022-12-28T16:01:45.938Z,12.15
2022-12-28T16:04:15.187Z,15.50
2022-12-28T16:06:44.952Z,12.10
2022-12-28T16:09:15.039Z,14.73
2022-12-28T16:11:43.818Z,15.85
2022-12-28T16:14:17.525Z,13.77
2022-12-28T16:16:54.251Z,14.57
2022-12-28T16:19:23.007Z,13.13
2022-12-28T16:22:00.716Z,11.43
2022-12-28T16:24:41.320Z,12.70
2022-12-28T16:27:12.792Z,13.63
2022-12-28T16:29:41.202Z,13.18
2022-12-28T16:32:12.720Z,16.15
2022-12-28T16:37:11.877Z,13.48
2022-12-28T16:39:43.358Z,13.90
2022-12-28T16:44:41.182Z,13.75
2022-12-28T16:47:47.817Z,14.45
2022-12-28T16:50:42.951Z,11.80
2022-12-28T16:53:41.572Z,11.90
2022-12-28T17:00:09.910Z,13.77
2022-12-28T17:02:41.302Z,14.20
2022-12-28T17:05:48.139Z,19.02
2022-12-28T17:08:42.401Z,16.65
2022-12-28T17:11:14.026Z,18.85
2022-12-28T17:13:43.574Z,14.18
2022-12-28T17:16:46.280Z,13.95
2022-12-28T17:19:43.845Z,15.82
2022-12-28T17:22:12.285Z,15.30
2022-12-28T17:24:44.337Z,15.98
2022-12-28T17:27:42.188Z,14.80
2022-12-28T17:30:34.155Z,18.80
2022-12-28T17:33:12.519Z,15.00
2022-12-28T17:35:42.946Z,16.30
2022-12-28T17:42:41.064Z,24.83
2022-12-28T17:45:44.937Z,20.92
2022-12-28T17:48:45.919Z,29.05
2022-12-28T17:51:42.991Z,28.00
2022-12-28T17:55:25.588Z,29.63
2022-12-28T17:57:44.702Z,24.67
2022-12-28T18:00:45.291Z,26.33
2022-12-28T18:03:42.597Z,25.10
2022-12-28T18:06:12.947Z,32.72
2022-12-28T18:08:44.606Z,29.50
2022-12-28T18:11:42.717Z,27.73
2022-12-28T18:14:40.830Z,28.60
2022-12-28T18:17:12.396Z,29.83
2022-12-28T18:19:43.602Z,31.92
2022-12-28T18:22:17.857Z,32.60
2022-12-28T18:24:46.124Z,30.98
2022-12-28T18:27:47.074Z,28.63
2022-12-28T18:30:35.488Z,31.75
2022-12-28T18:36:21.838Z,34.97
2022-12-28T18:38:50.663Z,35.60
2022-12-28T18:41:34.173Z,30.92
2022-12-28T18:44:08.757Z,30.73
2022-12-28T18:46:37.266Z,33.13
2022-12-28T18:49:23.253Z,32.38
2022-12-28T18:51:51.778Z,27.92
2022-12-28T18:54:44.245Z,29.85
2022-12-28T18:57:12.562Z,29.38
2022-12-28T18:59:43.614Z,30.30
2022-12-28T19:02:19.433Z,32.38
2022-12-28T19:04:48.829Z,26.35
2022-12-28T19:07:24.028Z,30.25
2022-12-28T19:10:13.014Z,26.67
2022-12-28T19:12:45.173Z,26.92
2022-12-28T19:15:38.740Z,32.10
2022-12-28T19:18:47.337Z,25.00
2022-12-28T19:21:35.211Z,27.92
2022-12-28T19:24:21.816Z,27.38
2022-12-28T19:26:50.340Z,33.15
2022-12-28T19:29:53.641Z,28.25
2022-12-28T19:32:22.174Z,32.33
2022-12-28T19:34:50.548Z,30.33
2022-12-28T19:37:27.952Z,29.40
2022-12-28T19:39:57.952Z,30.08
2022-12-28T19:42:45.570Z,28.05
2022-12-28T19:45:20.754Z,35.47
2022-12-28T19:47:49.023Z,32.10
2022-12-28T19:56:13.537Z,29.70
2022-12-28T19:58:46.398Z,30.00
2022-12-28T20:01:18.993Z,30.13
2022-12-28T20:03:49.230Z,26.85
2022-12-28T20:06:25.549Z,29.42
2022-12-28T20:08:57.771Z,31.80
2022-12-28T20:11:26.641Z,31.05
2022-12-28T20:16:45.479Z,31.88
2022-12-28T20:19:17.253Z,25.77
2022-12-28T20:21:50.287Z,26.85
2022-12-28T20:24:46.440Z,31.90
2022-12-28T20:27:58.128Z,30.25
2022-12-28T20:34:45.530Z,32.72
2022-12-28T20:37:53.213Z,35.03
2022-12-28T20:40:25.652Z,34.72
2022-12-28T20:54:16.570Z,33.17
2022-12-28T20:56:55.125Z,34.00
2022-12-28T20:59:48.228Z,31.15
2022-12-28T21:02:31.958Z,29.08
2022-12-28T21:05:47.460Z,32.22
2022-12-28T21:08:18.549Z,28.80
2022-12-28T21:10:52.123Z,36.22
2022-12-28T21:13:26.270Z,31.52
2022-12-28T21:18:50.640Z,30.63
2022-12-28T21:21:47.236Z,33.08
2022-12-28T21:24:22.941Z,28.58
2022-12-28T21:26:51.313Z,32.05
2022-12-28T21:29:52.200Z,31.80
2022-12-28T21:35:33.902Z,33.35
2022-12-28T22:30:37.658Z,20.65
2022-12-28T22:35:53.394Z,19.08
2022-12-28T22:38:54.739Z,18.47
2022-12-28T22:41:30.098Z,19.63
2022-12-28T22:45:08.441Z,26.27
2022-12-28T22:52:43.330Z,19.08
2022-12-28T23:00:54.666Z,16.88
2022-12-28T23:07:22.366Z,29.95
2022-12-28T23:11:20.848Z,20.83
2022-12-28T23:17:00.349Z,19.80
2022-12-28T23:22:59.632Z,24.20
2022-12-28T23:29:01.811Z,19.98
2022-12-28T23:36:03.411Z,19.45
2022-12-28T23:38:55.452Z,22.08
2022-12-28T23:41:51.154Z,19.52
2022-12-28T23:44:52.528Z,20.42
2022-12-28T23:47:24.577Z,15.73
2022-12-28T23:49:58.225Z,12.43
2022-12-28T23:52:59.630Z,15.02
2022-12-28T23:56:02.938Z,14.77
2022-12-28T23:58:52.436Z,13.25
